createdAt,value
2023-04-13T00:12:15.091Z,99203.03
2023-04-13T00:27:06.361Z,99204.46
2023-04-13T00:41:59.820Z,99195.86
2023-04-13T00:56:54.095Z,99197.00
2023-04-13T01:12:19.235Z,99189.33
2023-04-13T01:27:17.020Z,99188.39
2023-04-13T01:42:09.687Z,99189.14
2023-04-13T01:57:00.731Z,99187.69
2023-04-13T02:11:51.500Z,99180.55
2023-04-13T02:26:42.812Z,99178.45
2023-04-13T02:41:33.515Z,99200.98
2023-04-13T02:56:24.398Z,99217.42
2023-04-13T03:11:15.360Z,99233.45
2023-04-13T03:26:06.482Z,99242.70
2023-04-13T03:40:57.473Z,99260.73
2023-04-13T03:55:48.560Z,99264.03
2023-04-13T04:10:40.106Z,99273.25
2023-04-13T04:55:11.471Z,99308.63
2023-04-13T05:24:53.634Z,99319.39
2023-04-13T05:39:44.988Z,99323.14
2023-04-13T05:54:35.021Z,99340.35
2023-04-13T06:09:26.407Z,99372.42
2023-04-13T06:24:17.758Z,99386.08
2023-04-13T06:39:08.887Z,99391.73
2023-04-13T06:54:00.190Z,99368.32
2023-04-13T07:08:51.595Z,99386.27
2023-04-13T07:23:42.773Z,99387.72
2023-04-13T07:38:34.506Z,99375.13
2023-04-13T07:53:26.172Z,99382.30
2023-04-13T08:08:17.730Z,99398.13
2023-04-13T08:23:06.871Z,99412.17
2023-04-13T08:37:55.996Z,99429.11
2023-04-13T09:07:39.022Z,99436.45
2023-04-13T09:22:30.601Z,99456.37
2023-04-13T09:37:23.594Z,99463.64
2023-04-13T09:52:18.868Z,99468.23
2023-04-13T10:07:14.808Z,99467.05
2023-04-13T10:22:09.050Z,99456.52
2023-04-13T10:36:59.759Z,99467.35
2023-04-13T10:51:54.224Z,99454.31
2023-04-13T11:06:45.126Z,99445.27
2023-04-13T11:21:36.769Z,99440.36
2023-04-13T11:36:28.615Z,99420.15
2023-04-13T11:51:21.035Z,99405.17
2023-04-13T12:06:12.149Z,99401.60
2023-04-13T12:21:02.544Z,99406.17
2023-04-13T12:35:52.758Z,99418.85
2023-04-13T12:50:43.213Z,99409.34
2023-04-13T13:05:35.723Z,99391.30
2023-04-13T13:20:25.540Z,99401.25
2023-04-13T13:35:14.210Z,99385.05
2023-04-13T15:48:55.133Z,99429.61
2023-04-13T16:03:45.106Z,99439.95
2023-04-13T16:18:36.284Z,99439.11
2023-04-13T16:33:29.108Z,99451.83
2023-04-13T16:48:21.365Z,99445.26
2023-04-13T17:03:13.009Z,99445.80
2023-04-13T17:18:03.759Z,99444.20
2023-04-13T17:32:55.149Z,99459.34
2023-04-13T17:47:45.153Z,99468.81
2023-04-13T18:02:35.708Z,99491.30
2023-04-13T18:17:26.158Z,99496.73
2023-04-13T18:47:06.878Z,99539.54
2023-04-13T19:01:58.084Z,99560.80
2023-04-13T19:16:48.165Z,99568.25
2023-04-13T19:31:37.176Z,99572.08
2023-04-13T19:46:27.943Z,99574.59
2023-04-13T20:01:18.227Z,99569.15
2023-04-13T20:16:08.051Z,99576.94
2023-04-13T20:45:49.162Z,99595.72
2023-04-13T21:00:39.889Z,99612.03
2023-04-13T21:15:29.831Z,99609.25
2023-04-13T21:30:19.614Z,99595.52
2023-04-13T21:59:59.953Z,99606.63
2023-04-13T22:44:36.454Z,99611.86
2023-04-13T23:14:19.688Z,99672.73
2023-04-13T23:29:13.070Z,99664.97
2023-04-13T23:44:03.329Z,99663.59
2023-04-13T23:58:54.812Z,99664.38
